sensor_id;sensor_type;location;lat;lon;timestamp;P1;durP1;ratioP1;P2;durP2;ratioP2
5343;SDS011;2694;48.954;8.928;2023-06-22T00:01:16;5.88;;;4.50;;
5343;SDS011;2694;48.954;8.928;2023-06-22T00:03:43;8.23;;;4.80;;
5343;SDS011;2694;48.954;8.928;2023-06-22T00:06:10;8.75;;;4.75;;
5343;SDS011;2694;48.954;8.928;2023-06-22T00:08:37;9.23;;;5.68;;
5343;SDS011;2694;48.954;8.928;2023-06-22T00:11:04;7.25;;;4.75;;
5343;SDS011;2694;48.954;8.928;2023-06-22T00:13:32;8.73;;;4.53;;
5343;SDS011;2694;48.954;8.928;2023-06-22T00:15:59;12.23;;;5.18;;
5343;SDS011;2694;48.954;8.928;2023-06-22T00:18:26;8.20;;;5.22;;
5343;SDS011;2694;48.954;8.928;2023-06-22T00:20:55;10.25;;;4.88;;
5343;SDS011;2694;48.954;8.928;2023-06-22T00:23:25;9.80;;;5.35;;
5343;SDS011;2694;48.954;8.928;2023-06-22T00:25:52;8.15;;;5.65;;
5343;SDS011;2694;48.954;8.928;2023-06-22T00:28:20;9.25;;;5.60;;
5343;SDS011;2694;48.954;8.928;2023-06-22T00:30:48;9.70;;;5.90;;
5343;SDS011;2694;48.954;8.928;2023-06-22T00:33:16;12.95;;;5.43;;
5343;SDS011;2694;48.954;8.928;2023-06-22T00:35:42;9.80;;;5.88;;
5343;SDS011;2694;48.954;8.928;2023-06-22T00:38:10;13.30;;;6.30;;
5343;SDS011;2694;48.954;8.928;2023-06-22T00:40:37;8.23;;;4.70;;
5343;SDS011;2694;48.954;8.928;2023-06-22T00:43:04;9.33;;;5.37;;
5343;SDS011;2694;48.954;8.928;2023-06-22T00:45:32;8.25;;;4.93;;
5343;SDS011;2694;48.954;8.928;2023-06-22T00:48:00;9.43;;;5.68;;
5343;SDS011;2694;48.954;8.928;2023-06-22T00:50:29;12.48;;;5.80;;
5343;SDS011;2694;48.954;8.928;2023-06-22T00:52:58;10.00;;;5.45;;
5343;SDS011;2694;48.954;8.928;2023-06-22T00:55:29;8.80;;;5.20;;
5343;SDS011;2694;48.954;8.928;2023-06-22T00:57:56;9.68;;;4.90;;
5343;SDS011;2694;48.954;8.928;2023-06-22T01:00:23;10.82;;;5.00;;
5343;SDS011;2694;48.954;8.928;2023-06-22T01:02:51;8.32;;;5.43;;
5343;SDS011;2694;48.954;8.928;2023-06-22T01:05:21;8.65;;;5.80;;
5343;SDS011;2694;48.954;8.928;2023-06-22T01:07:52;9.27;;;4.70;;
5343;SDS011;2694;48.954;8.928;2023-06-22T01:10:34;8.27;;;4.93;;
5343;SDS011;2694;48.954;8.928;2023-06-22T01:13:07;8.05;;;4.78;;
5343;SDS011;2694;48.954;8.928;2023-06-22T01:15:42;8.23;;;4.75;;
5343;SDS011;2694;48.954;8.928;2023-06-22T01:18:14;6.80;;;4.50;;
5343;SDS011;2694;48.954;8.928;2023-06-22T01:20:44;8.27;;;4.70;;
5343;SDS011;2694;48.954;8.928;2023-06-22T01:23:17;8.00;;;4.95;;
5343;SDS011;2694;48.954;8.928;2023-06-22T01:25:53;6.78;;;4.93;;
5343;SDS011;2694;48.954;8.928;2023-06-22T01:31:16;10.20;;;5.17;;
5343;SDS011;2694;48.954;8.928;2023-06-22T01:33:46;8.50;;;4.73;;
5343;SDS011;2694;48.954;8.928;2023-06-22T01:36:16;9.75;;;4.70;;
5343;SDS011;2694;48.954;8.928;2023-06-22T01:38:44;8.10;;;5.20;;
5343;SDS011;2694;48.954;8.928;2023-06-22T01:41:12;9.00;;;5.00;;
5343;SDS011;2694;48.954;8.928;2023-06-22T01:43:39;9.00;;;5.53;;
5343;SDS011;2694;48.954;8.928;2023-06-22T01:46:09;9.82;;;5.72;;
5343;SDS011;2694;48.954;8.928;2023-06-22T01:48:37;10.18;;;5.70;;
5343;SDS011;2694;48.954;8.928;2023-06-22T01:51:05;6.53;;;4.65;;
5343;SDS011;2694;48.954;8.928;2023-06-22T01:53:32;14.50;;;6.55;;
5343;SDS011;2694;48.954;8.928;2023-06-22T01:55:59;10.60;;;6.25;;
5343;SDS011;2694;48.954;8.928;2023-06-22T01:58:29;10.35;;;5.72;;
5343;SDS011;2694;48.954;8.928;2023-06-22T02:00:58;10.68;;;5.70;;
5343;SDS011;2694;48.954;8.928;2023-06-22T02:03:31;8.45;;;5.50;;
5343;SDS011;2694;48.954;8.928;2023-06-22T02:06:04;8.10;;;5.10;;
5343;SDS011;2694;48.954;8.928;2023-06-22T02:08:35;9.82;;;4.90;;
5343;SDS011;2694;48.954;8.928;2023-06-22T02:11:06;10.45;;;5.72;;
5343;SDS011;2694;48.954;8.928;2023-06-22T02:13:36;10.70;;;5.50;;
5343;SDS011;2694;48.954;8.928;2023-06-22T02:16:07;9.02;;;6.00;;
5343;SDS011;2694;48.954;8.928;2023-06-22T02:18:36;11.55;;;6.13;;
5343;SDS011;2694;48.954;8.928;2023-06-22T02:21:05;9.52;;;6.00;;
5343;SDS011;2694;48.954;8.928;2023-06-22T02:23:32;11.15;;;5.95;;
5343;SDS011;2694;48.954;8.928;2023-06-22T02:26:00;14.48;;;6.50;;
5343;SDS011;2694;48.954;8.928;2023-06-22T02:28:28;10.05;;;6.28;;
5343;SDS011;2694;48.954;8.928;2023-06-22T02:30:55;13.25;;;6.10;;
5343;SDS011;2694;48.954;8.928;2023-06-22T02:33:22;12.02;;;5.80;;
5343;SDS011;2694;48.954;8.928;2023-06-22T02:35:50;11.00;;;6.78;;
5343;SDS011;2694;48.954;8.928;2023-06-22T02:38:18;9.60;;;5.93;;
5343;SDS011;2694;48.954;8.928;2023-06-22T02:40:45;10.48;;;5.57;;
5343;SDS011;2694;48.954;8.928;2023-06-22T02:43:12;8.68;;;5.13;;
5343;SDS011;2694;48.954;8.928;2023-06-22T02:45:39;9.68;;;5.90;;
5343;SDS011;2694;48.954;8.928;2023-06-22T02:48:06;8.68;;;4.95;;
5343;SDS011;2694;48.954;8.928;2023-06-22T02:50:33;11.80;;;5.20;;
5343;SDS011;2694;48.954;8.928;2023-06-22T02:53:01;8.05;;;4.80;;
5343;SDS011;2694;48.954;8.928;2023-06-22T02:55:28;7.15;;;4.90;;
5343;SDS011;2694;48.954;8.928;2023-06-22T02:57:56;7.73;;;5.00;;
5343;SDS011;2694;48.954;8.928;2023-06-22T03:00:24;9.70;;;5.43;;
5343;SDS011;2694;48.954;8.928;2023-06-22T03:02:55;10.07;;;5.28;;
5343;SDS011;2694;48.954;8.928;2023-06-22T03:05:23;7.22;;;4.90;;
5343;SDS011;2694;48.954;8.928;2023-06-22T03:07:51;10.38;;;4.90;;
5343;SDS011;2694;48.954;8.928;2023-06-22T03:10:19;12.20;;;5.65;;
5343;SDS011;2694;48.954;8.928;2023-06-22T03:12:46;12.45;;;5.38;;
5343;SDS011;2694;48.954;8.928;2023-06-22T03:15:13;8.05;;;5.22;;
5343;SDS011;2694;48.954;8.928;2023-06-22T03:17:42;9.93;;;5.40;;
5343;SDS011;2694;48.954;8.928;2023-06-22T03:20:09;9.98;;;4.70;;
5343;SDS011;2694;48.954;8.928;2023-06-22T03:22:37;8.88;;;5.38;;
5343;SDS011;2694;48.954;8.928;2023-06-22T03:25:05;9.10;;;5.15;;
5343;SDS011;2694;48.954;8.928;2023-06-22T03:27:39;10.80;;;5.63;;
5343;SDS011;2694;48.954;8.928;2023-06-22T03:30:07;9.27;;;4.60;;
5343;SDS011;2694;48.954;8.928;2023-06-22T03:32:36;9.80;;;4.73;;
5343;SDS011;2694;48.954;8.928;2023-06-22T03:35:04;9.05;;;5.10;;
5343;SDS011;2694;48.954;8.928;2023-06-22T03:37:32;6.85;;;4.57;;
5343;SDS011;2694;48.954;8.928;2023-06-22T03:39:59;7.65;;;4.72;;
5343;SDS011;2694;48.954;8.928;2023-06-22T03:42:26;9.13;;;5.40;;
5343;SDS011;2694;48.954;8.928;2023-06-22T03:44:57;16.42;;;7.80;;
5343;SDS011;2694;48.954;8.928;2023-06-22T03:47:26;12.05;;;7.50;;
5343;SDS011;2694;48.954;8.928;2023-06-22T03:49:52;13.23;;;6.80;;
5343;SDS011;2694;48.954;8.928;2023-06-22T03:52:20;11.60;;;7.07;;
5343;SDS011;2694;48.954;8.928;2023-06-22T03:54:47;10.55;;;6.68;;
5343;SDS011;2694;48.954;8.928;2023-06-22T03:57:14;13.48;;;6.72;;
5343;SDS011;2694;48.954;8.928;2023-06-22T03:59:41;15.20;;;7.60;;
5343;SDS011;2694;48.954;8.928;2023-06-22T04:02:09;17.23;;;7.35;;
5343;SDS011;2694;48.954;8.928;2023-06-22T04:04:36;13.38;;;6.82;;
5343;SDS011;2694;48.954;8.928;2023-06-22T04:07:04;15.73;;;6.70;;
5343;SDS011;2694;48.954;8.928;2023-06-22T04:09:31;12.93;;;7.50;;
5343;SDS011;2694;48.954;8.928;2023-06-22T04:11:58;13.02;;;7.00;;
5343;SDS011;2694;48.954;8.928;2023-06-22T04:14:25;12.97;;;6.90;;
5343;SDS011;2694;48.954;8.928;2023-06-22T04:16:52;12.77;;;7.40;;
5343;SDS011;2694;48.954;8.928;2023-06-22T04:19:20;11.37;;;7.13;;
5343;SDS011;2694;48.954;8.928;2023-06-22T04:21:47;15.77;;;7.82;;
5343;SDS011;2694;48.954;8.928;2023-06-22T04:24:14;14.10;;;7.20;;
5343;SDS011;2694;48.954;8.928;2023-06-22T04:26:41;13.35;;;7.60;;
5343;SDS011;2694;48.954;8.928;2023-06-22T04:29:10;13.67;;;7.43;;
5343;SDS011;2694;48.954;8.928;2023-06-22T04:31:37;16.00;;;8.10;;
5343;SDS011;2694;48.954;8.928;2023-06-22T04:34:05;14.85;;;7.95;;
5343;SDS011;2694;48.954;8.928;2023-06-22T04:36:38;11.50;;;7.30;;
5343;SDS011;2694;48.954;8.928;2023-06-22T04:39:07;16.60;;;7.72;;
5343;SDS011;2694;48.954;8.928;2023-06-22T04:41:36;14.90;;;8.00;;
5343;SDS011;2694;48.954;8.928;2023-06-22T04:44:13;15.20;;;7.57;;
5343;SDS011;2694;48.954;8.928;2023-06-22T04:46:49;15.98;;;7.90;;
5343;SDS011;2694;48.954;8.928;2023-06-22T04:49:19;9.95;;;6.47;;
5343;SDS011;2694;48.954;8.928;2023-06-22T04:51:48;12.80;;;7.00;;
5343;SDS011;2694;48.954;8.928;2023-06-22T04:54:16;16.85;;;7.10;;
5343;SDS011;2694;48.954;8.928;2023-06-22T04:56:43;13.77;;;7.10;;
5343;SDS011;2694;48.954;8.928;2023-06-22T04:59:11;10.50;;;6.07;;
5343;SDS011;2694;48.954;8.928;2023-06-22T05:01:39;15.90;;;7.38;;
5343;SDS011;2694;48.954;8.928;2023-06-22T05:04:06;13.85;;;6.80;;
5343;SDS011;2694;48.954;8.928;2023-06-22T05:06:33;12.07;;;6.40;;
5343;SDS011;2694;48.954;8.928;2023-06-22T05:09:01;9.65;;;6.30;;
5343;SDS011;2694;48.954;8.928;2023-06-22T05:11:30;13.80;;;6.80;;
5343;SDS011;2694;48.954;8.928;2023-06-22T05:13:57;13.00;;;6.80;;
5343;SDS011;2694;48.954;8.928;2023-06-22T05:16:24;11.70;;;7.45;;
5343;SDS011;2694;48.954;8.928;2023-06-22T05:18:51;14.55;;;6.80;;
5343;SDS011;2694;48.954;8.928;2023-06-22T05:21:21;9.90;;;6.90;;
5343;SDS011;2694;48.954;8.928;2023-06-22T05:23:49;15.30;;;6.50;;
5343;SDS011;2694;48.954;8.928;2023-06-22T05:26:18;10.45;;;6.80;;
5343;SDS011;2694;48.954;8.928;2023-06-22T05:28:45;12.68;;;6.95;;
5343;SDS011;2694;48.954;8.928;2023-06-22T05:31:12;13.45;;;7.35;;
5343;SDS011;2694;48.954;8.928;2023-06-22T05:33:40;12.40;;;8.00;;
5343;SDS011;2694;48.954;8.928;2023-06-22T05:36:07;12.27;;;7.40;;
5343;SDS011;2694;48.954;8.928;2023-06-22T05:38:35;13.03;;;7.30;;
5343;SDS011;2694;48.954;8.928;2023-06-22T05:41:02;12.13;;;7.20;;
5343;SDS011;2694;48.954;8.928;2023-06-22T05:43:30;14.97;;;7.40;;
5343;SDS011;2694;48.954;8.928;2023-06-22T05:45:58;14.60;;;7.30;;
5343;SDS011;2694;48.954;8.928;2023-06-22T05:48:26;17.70;;;8.37;;
5343;SDS011;2694;48.954;8.928;2023-06-22T05:50:53;13.20;;;7.77;;
5343;SDS011;2694;48.954;8.928;2023-06-22T05:53:20;19.90;;;9.00;;
5343;SDS011;2694;48.954;8.928;2023-06-22T05:55:47;16.63;;;8.23;;
5343;SDS011;2694;48.954;8.928;2023-06-22T05:58:14;19.77;;;8.50;;
5343;SDS011;2694;48.954;8.928;2023-06-22T06:00:43;22.00;;;9.57;;
5343;SDS011;2694;48.954;8.928;2023-06-22T06:03:10;16.75;;;8.07;;
5343;SDS011;2694;48.954;8.928;2023-06-22T06:05:37;14.55;;;7.75;;
5343;SDS011;2694;48.954;8.928;2023-06-22T06:08:05;14.52;;;7.80;;
5343;SDS011;2694;48.954;8.928;2023-06-22T06:10:32;17.58;;;8.00;;
5343;SDS011;2694;48.954;8.928;2023-06-22T06:13:00;14.90;;;8.10;;
5343;SDS011;2694;48.954;8.928;2023-06-22T06:15:29;14.57;;;8.18;;
5343;SDS011;2694;48.954;8.928;2023-06-22T06:17:58;13.20;;;7.85;;
5343;SDS011;2694;48.954;8.928;2023-06-22T06:20:25;12.10;;;7.47;;
5343;SDS011;2694;48.954;8.928;2023-06-22T06:22:53;11.70;;;6.85;;
5343;SDS011;2694;48.954;8.928;2023-06-22T06:25:21;12.75;;;7.45;;
5343;SDS011;2694;48.954;8.928;2023-06-22T06:27:49;13.82;;;7.55;;
5343;SDS011;2694;48.954;8.928;2023-06-22T06:30:17;11.90;;;7.30;;
5343;SDS011;2694;48.954;8.928;2023-06-22T06:32:44;12.35;;;7.50;;
5343;SDS011;2694;48.954;8.928;2023-06-22T06:35:14;11.40;;;7.00;;
5343;SDS011;2694;48.954;8.928;2023-06-22T06:37:42;12.55;;;6.82;;
5343;SDS011;2694;48.954;8.928;2023-06-22T06:40:10;15.63;;;7.85;;
5343;SDS011;2694;48.954;8.928;2023-06-22T06:42:39;14.10;;;7.30;;
5343;SDS011;2694;48.954;8.928;2023-06-22T06:45:09;14.85;;;6.93;;
5343;SDS011;2694;48.954;8.928;2023-06-22T06:47:37;12.40;;;7.10;;
5343;SDS011;2694;48.954;8.928;2023-06-22T06:50:04;13.88;;;6.20;;
5343;SDS011;2694;48.954;8.928;2023-06-22T06:52:33;15.20;;;7.13;;
5343;SDS011;2694;48.954;8.928;2023-06-22T06:55:00;13.77;;;6.60;;
5343;SDS011;2694;48.954;8.928;2023-06-22T06:57:29;13.13;;;5.80;;
5343;SDS011;2694;48.954;8.928;2023-06-22T06:59:57;11.68;;;6.22;;
5343;SDS011;2694;48.954;8.928;2023-06-22T07:02:24;11.95;;;7.03;;
5343;SDS011;2694;48.954;8.928;2023-06-22T07:04:52;13.00;;;5.68;;
5343;SDS011;2694;48.954;8.928;2023-06-22T07:07:20;12.73;;;6.25;;
5343;SDS011;2694;48.954;8.928;2023-06-22T07:09:49;8.50;;;5.15;;
5343;SDS011;2694;48.954;8.928;2023-06-22T07:12:15;10.35;;;6.05;;
5343;SDS011;2694;48.954;8.928;2023-06-22T07:14:42;11.63;;;6.10;;
5343;SDS011;2694;48.954;8.928;2023-06-22T07:17:09;13.20;;;5.90;;
5343;SDS011;2694;48.954;8.928;2023-06-22T07:19:36;11.48;;;6.15;;
5343;SDS011;2694;48.954;8.928;2023-06-22T07:22:04;10.32;;;5.55;;
5343;SDS011;2694;48.954;8.928;2023-06-22T07:24:31;12.13;;;5.95;;
5343;SDS011;2694;48.954;8.928;2023-06-22T07:27:00;7.90;;;5.18;;
5343;SDS011;2694;48.954;8.928;2023-06-22T07:29:31;14.98;;;6.07;;
5343;SDS011;2694;48.954;8.928;2023-06-22T07:31:58;10.45;;;5.70;;
5343;SDS011;2694;48.954;8.928;2023-06-22T07:34:25;11.20;;;5.47;;
5343;SDS011;2694;48.954;8.928;2023-06-22T07:36:52;12.30;;;5.00;;
5343;SDS011;2694;48.954;8.928;2023-06-22T07:39:19;8.82;;;5.60;;
5343;SDS011;2694;48.954;8.928;2023-06-22T07:41:50;7.80;;;4.63;;
5343;SDS011;2694;48.954;8.928;2023-06-22T07:44:19;7.93;;;4.50;;
5343;SDS011;2694;48.954;8.928;2023-06-22T07:46:46;8.75;;;4.20;;
5343;SDS011;2694;48.954;8.928;2023-06-22T07:49:12;9.80;;;4.90;;
5343;SDS011;2694;48.954;8.928;2023-06-22T07:51:39;8.77;;;5.20;;
5343;SDS011;2694;48.954;8.928;2023-06-22T07:54:06;8.80;;;5.20;;
5343;SDS011;2694;48.954;8.928;2023-06-22T07:56:33;9.20;;;4.70;;
5343;SDS011;2694;48.954;8.928;2023-06-22T07:59:02;10.35;;;4.65;;
5343;SDS011;2694;48.954;8.928;2023-06-22T08:01:30;9.95;;;5.10;;
5343;SDS011;2694;48.954;8.928;2023-06-22T08:03:57;10.98;;;5.03;;
5343;SDS011;2694;48.954;8.928;2023-06-22T08:06:24;11.00;;;5.22;;
5343;SDS011;2694;48.954;8.928;2023-06-22T08:08:51;7.60;;;4.97;;
5343;SDS011;2694;48.954;8.928;2023-06-22T08:11:19;11.95;;;5.38;;
5343;SDS011;2694;48.954;8.928;2023-06-22T08:13:48;8.65;;;4.70;;
5343;SDS011;2694;48.954;8.928;2023-06-22T08:16:16;11.68;;;4.90;;
5343;SDS011;2694;48.954;8.928;2023-06-22T08:18:44;7.30;;;4.60;;
5343;SDS011;2694;48.954;8.928;2023-06-22T08:21:11;9.45;;;4.97;;
5343;SDS011;2694;48.954;8.928;2023-06-22T08:23:38;12.20;;;5.10;;
5343;SDS011;2694;48.954;8.928;2023-06-22T08:26:05;8.38;;;4.25;;
5343;SDS011;2694;48.954;8.928;2023-06-22T08:28:32;10.93;;;4.90;;
5343;SDS011;2694;48.954;8.928;2023-06-22T08:30:59;12.20;;;5.25;;
5343;SDS011;2694;48.954;8.928;2023-06-22T08:33:26;9.13;;;4.43;;
5343;SDS011;2694;48.954;8.928;2023-06-22T08:35:57;9.70;;;4.78;;
5343;SDS011;2694;48.954;8.928;2023-06-22T08:38:24;7.75;;;4.63;;
5343;SDS011;2694;48.954;8.928;2023-06-22T08:40:51;10.77;;;4.93;;
5343;SDS011;2694;48.954;8.928;2023-06-22T08:43:18;9.98;;;4.50;;
5343;SDS011;2694;48.954;8.928;2023-06-22T08:45:45;13.00;;;4.97;;
5343;SDS011;2694;48.954;8.928;2023-06-22T08:48:12;12.00;;;4.30;;
5343;SDS011;2694;48.954;8.928;2023-06-22T08:50:39;13.88;;;5.28;;
5343;SDS011;2694;48.954;8.928;2023-06-22T08:53:07;14.32;;;4.63;;
5343;SDS011;2694;48.954;8.928;2023-06-22T08:55:34;11.88;;;5.10;;
5343;SDS011;2694;48.954;8.928;2023-06-22T08:58:01;9.45;;;4.43;;
5343;SDS011;2694;48.954;8.928;2023-06-22T09:00:30;9.18;;;4.75;;
5343;SDS011;2694;48.954;8.928;2023-06-22T09:02:59;11.60;;;4.60;;
5343;SDS011;2694;48.954;8.928;2023-06-22T09:05:26;10.60;;;4.93;;
5343;SDS011;2694;48.954;8.928;2023-06-22T09:07:53;15.03;;;4.47;;
5343;SDS011;2694;48.954;8.928;2023-06-22T09:10:25;9.25;;;4.90;;
5343;SDS011;2694;48.954;8.928;2023-06-22T09:12:52;9.35;;;4.40;;
5343;SDS011;2694;48.954;8.928;2023-06-22T09:15:19;11.40;;;4.53;;
5343;SDS011;2694;48.954;8.928;2023-06-22T09:17:46;12.32;;;4.80;;
5343;SDS011;2694;48.954;8.928;2023-06-22T09:20:13;12.57;;;4.90;;
5343;SDS011;2694;48.954;8.928;2023-06-22T09:22:41;11.98;;;4.60;;
5343;SDS011;2694;48.954;8.928;2023-06-22T09:25:08;11.60;;;4.50;;
5343;SDS011;2694;48.954;8.928;2023-06-22T09:27:36;8.63;;;4.20;;
5343;SDS011;2694;48.954;8.928;2023-06-22T09:30:04;12.40;;;4.90;;
5343;SDS011;2694;48.954;8.928;2023-06-22T09:32:32;12.00;;;5.28;;
5343;SDS011;2694;48.954;8.928;2023-06-22T09:34:58;7.82;;;4.47;;
5343;SDS011;2694;48.954;8.928;2023-06-22T09:37:28;9.77;;;4.25;;
5343;SDS011;2694;48.954;8.928;2023-06-22T09:39:55;8.68;;;4.70;;
5343;SDS011;2694;48.954;8.928;2023-06-22T09:42:22;8.65;;;4.65;;
5343;SDS011;2694;48.954;8.928;2023-06-22T09:44:50;9.98;;;4.95;;
5343;SDS011;2694;48.954;8.928;2023-06-22T09:47:17;11.45;;;4.88;;
5343;SDS011;2694;48.954;8.928;2023-06-22T09:49:44;11.07;;;5.03;;
5343;SDS011;2694;48.954;8.928;2023-06-22T09:52:11;12.63;;;5.00;;
5343;SDS011;2694;48.954;8.928;2023-06-22T09:54:38;15.53;;;5.23;;
5343;SDS011;2694;48.954;8.928;2023-06-22T09:57:05;11.70;;;4.80;;
5343;SDS011;2694;48.954;8.928;2023-06-22T09:59:33;8.82;;;4.32;;
5343;SDS011;2694;48.954;8.928;2023-06-22T10:02:01;9.52;;;4.63;;
5343;SDS011;2694;48.954;8.928;2023-06-22T10:04:28;8.90;;;4.60;;
5343;SDS011;2694;48.954;8.928;2023-06-22T10:06:55;10.75;;;5.07;;
5343;SDS011;2694;48.954;8.928;2023-06-22T10:09:22;11.00;;;5.30;;
5343;SDS011;2694;48.954;8.928;2023-06-22T10:11:48;9.30;;;4.90;;
5343;SDS011;2694;48.954;8.928;2023-06-22T10:14:15;10.18;;;5.00;;
5343;SDS011;2694;48.954;8.928;2023-06-22T10:16:43;8.48;;;4.50;;
5343;SDS011;2694;48.954;8.928;2023-06-22T10:19:11;13.98;;;5.43;;
5343;SDS011;2694;48.954;8.928;2023-06-22T10:21:38;11.50;;;4.80;;
5343;SDS011;2694;48.954;8.928;2023-06-22T10:24:05;15.52;;;5.00;;
5343;SDS011;2694;48.954;8.928;2023-06-22T10:26:32;11.23;;;5.30;;
5343;SDS011;2694;48.954;8.928;2023-06-22T10:28:59;10.90;;;5.70;;
5343;SDS011;2694;48.954;8.928;2023-06-22T10:31:26;9.95;;;4.47;;
5343;SDS011;2694;48.954;8.928;2023-06-22T10:33:53;10.70;;;4.70;;
5343;SDS011;2694;48.954;8.928;2023-06-22T10:36:22;11.48;;;4.88;;
5343;SDS011;2694;48.954;8.928;2023-06-22T10:38:49;10.02;;;4.47;;
5343;SDS011;2694;48.954;8.928;2023-06-22T10:41:17;12.27;;;5.10;;
5343;SDS011;2694;48.954;8.928;2023-06-22T10:43:44;8.52;;;4.43;;
5343;SDS011;2694;48.954;8.928;2023-06-22T10:46:12;8.70;;;4.57;;
5343;SDS011;2694;48.954;8.928;2023-06-22T10:48:39;9.40;;;4.70;;
5343;SDS011;2694;48.954;8.928;2023-06-22T10:51:06;12.55;;;5.10;;
5343;SDS011;2694;48.954;8.928;2023-06-22T10:53:34;12.32;;;5.15;;
5343;SDS011;2694;48.954;8.928;2023-06-22T10:56:01;9.63;;;4.60;;
5343;SDS011;2694;48.954;8.928;2023-06-22T10:58:28;8.35;;;5.05;;
5343;SDS011;2694;48.954;8.928;2023-06-22T11:00:55;10.50;;;5.03;;
5343;SDS011;2694;48.954;8.928;2023-06-22T11:03:22;11.45;;;5.35;;
5343;SDS011;2694;48.954;8.928;2023-06-22T11:05:48;11.98;;;5.30;;
5343;SDS011;2694;48.954;8.928;2023-06-22T11:08:15;11.13;;;4.82;;
5343;SDS011;2694;48.954;8.928;2023-06-22T11:10:44;9.75;;;4.80;;
5343;SDS011;2694;48.954;8.928;2023-06-22T11:13:11;10.63;;;4.65;;
5343;SDS011;2694;48.954;8.928;2023-06-22T11:15:38;11.57;;;4.70;;
5343;SDS011;2694;48.954;8.928;2023-06-22T11:18:06;10.80;;;4.88;;
5343;SDS011;2694;48.954;8.928;2023-06-22T11:20:33;12.02;;;5.40;;
5343;SDS011;2694;48.954;8.928;2023-06-22T11:23:03;8.85;;;4.30;;
5343;SDS011;2694;48.954;8.928;2023-06-22T11:25:31;8.75;;;4.20;;
5343;SDS011;2694;48.954;8.928;2023-06-22T11:28:01;7.95;;;4.60;;
5343;SDS011;2694;48.954;8.928;2023-06-22T11:30:28;10.07;;;4.90;;
5343;SDS011;2694;48.954;8.928;2023-06-22T11:32:56;13.55;;;4.38;;
5343;SDS011;2694;48.954;8.928;2023-06-22T11:35:24;9.07;;;4.72;;
5343;SDS011;2694;48.954;8.928;2023-06-22T11:37:51;15.95;;;5.40;;
5343;SDS011;2694;48.954;8.928;2023-06-22T11:40:18;9.85;;;4.97;;
5343;SDS011;2694;48.954;8.928;2023-06-22T11:42:44;9.07;;;4.43;;
5343;SDS011;2694;48.954;8.928;2023-06-22T11:45:13;10.95;;;5.05;;
5343;SDS011;2694;48.954;8.928;2023-06-22T11:47:40;13.52;;;4.60;;
5343;SDS011;2694;48.954;8.928;2023-06-22T11:50:07;11.10;;;5.03;;
5343;SDS011;2694;48.954;8.928;2023-06-22T11:52:34;14.20;;;4.80;;
5343;SDS011;2694;48.954;8.928;2023-06-22T11:55:02;12.57;;;4.75;;
5343;SDS011;2694;48.954;8.928;2023-06-22T11:57:32;14.47;;;5.40;;
5343;SDS011;2694;48.954;8.928;2023-06-22T11:59:59;10.25;;;4.60;;
5343;SDS011;2694;48.954;8.928;2023-06-22T12:02:28;11.10;;;4.45;;
5343;SDS011;2694;48.954;8.928;2023-06-22T12:04:55;10.18;;;5.05;;
5343;SDS011;2694;48.954;8.928;2023-06-22T12:07:23;7.25;;;4.32;;
5343;SDS011;2694;48.954;8.928;2023-06-22T12:09:50;13.65;;;4.82;;
5343;SDS011;2694;48.954;8.928;2023-06-22T12:12:17;9.30;;;4.47;;
5343;SDS011;2694;48.954;8.928;2023-06-22T12:14:44;10.15;;;4.88;;
5343;SDS011;2694;48.954;8.928;2023-06-22T12:17:11;13.18;;;4.43;;
5343;SDS011;2694;48.954;8.928;2023-06-22T12:19:39;11.15;;;4.60;;
5343;SDS011;2694;48.954;8.928;2023-06-22T12:22:06;11.93;;;4.90;;
5343;SDS011;2694;48.954;8.928;2023-06-22T12:24:33;13.77;;;5.07;;
5343;SDS011;2694;48.954;8.928;2023-06-22T12:27:00;11.40;;;4.97;;
5343;SDS011;2694;48.954;8.928;2023-06-22T12:29:28;9.82;;;4.80;;
5343;SDS011;2694;48.954;8.928;2023-06-22T12:31:55;9.27;;;4.45;;
5343;SDS011;2694;48.954;8.928;2023-06-22T12:34:22;9.77;;;4.93;;
5343;SDS011;2694;48.954;8.928;2023-06-22T12:36:50;12.10;;;5.33;;
5343;SDS011;2694;48.954;8.928;2023-06-22T12:39:19;8.50;;;4.30;;
5343;SDS011;2694;48.954;8.928;2023-06-22T12:41:46;11.05;;;4.70;;
5343;SDS011;2694;48.954;8.928;2023-06-22T12:44:13;10.70;;;4.80;;
5343;SDS011;2694;48.954;8.928;2023-06-22T12:46:40;13.82;;;5.30;;
5343;SDS011;2694;48.954;8.928;2023-06-22T12:49:07;11.85;;;4.65;;
5343;SDS011;2694;48.954;8.928;2023-06-22T12:51:39;12.52;;;4.60;;
5343;SDS011;2694;48.954;8.928;2023-06-22T12:54:07;9.55;;;4.72;;
5343;SDS011;2694;48.954;8.928;2023-06-22T12:56:34;13.30;;;4.25;;
5343;SDS011;2694;48.954;8.928;2023-06-22T12:59:03;11.48;;;4.13;;
5343;SDS011;2694;48.954;8.928;2023-06-22T13:01:31;9.07;;;4.22;;
5343;SDS011;2694;48.954;8.928;2023-06-22T13:03:58;11.65;;;4.57;;
5343;SDS011;2694;48.954;8.928;2023-06-22T13:06:25;11.23;;;4.45;;
5343;SDS011;2694;48.954;8.928;2023-06-22T13:08:52;10.07;;;4.60;;
5343;SDS011;2694;48.954;8.928;2023-06-22T13:11:21;11.07;;;4.80;;
5343;SDS011;2694;48.954;8.928;2023-06-22T13:13:47;12.13;;;4.60;;
5343;SDS011;2694;48.954;8.928;2023-06-22T13:16:14;11.80;;;4.90;;
5343;SDS011;2694;48.954;8.928;2023-06-22T13:18:41;12.00;;;4.50;;
5343;SDS011;2694;48.954;8.928;2023-06-22T13:21:08;10.35;;;4.45;;
5343;SDS011;2694;48.954;8.928;2023-06-22T13:23:35;9.40;;;4.10;;
5343;SDS011;2694;48.954;8.928;2023-06-22T13:26:02;13.57;;;5.32;;
5343;SDS011;2694;48.954;8.928;2023-06-22T13:28:30;12.40;;;5.22;;
5343;SDS011;2694;48.954;8.928;2023-06-22T13:30:57;12.25;;;5.32;;
5343;SDS011;2694;48.954;8.928;2023-06-22T13:33:24;12.98;;;5.10;;
5343;SDS011;2694;48.954;8.928;2023-06-22T13:35:51;17.55;;;5.22;;
5343;SDS011;2694;48.954;8.928;2023-06-22T13:38:18;11.88;;;4.57;;
5343;SDS011;2694;48.954;8.928;2023-06-22T13:40:45;18.02;;;4.70;;
5343;SDS011;2694;48.954;8.928;2023-06-22T13:43:13;15.77;;;5.00;;
5343;SDS011;2694;48.954;8.928;2023-06-22T13:45:42;11.98;;;4.82;;
5343;SDS011;2694;48.954;8.928;2023-06-22T13:48:09;13.45;;;5.00;;
5343;SDS011;2694;48.954;8.928;2023-06-22T13:50:36;10.43;;;4.60;;
5343;SDS011;2694;48.954;8.928;2023-06-22T13:53:03;15.85;;;5.28;;
5343;SDS011;2694;48.954;8.928;2023-06-22T13:55:30;11.15;;;4.60;;
5343;SDS011;2694;48.954;8.928;2023-06-22T13:57:57;13.70;;;5.50;;
5343;SDS011;2694;48.954;8.928;2023-06-22T14:00:24;11.50;;;4.90;;
5343;SDS011;2694;48.954;8.928;2023-06-22T14:02:54;14.40;;;4.60;;
5343;SDS011;2694;48.954;8.928;2023-06-22T14:05:21;11.75;;;4.60;;
5343;SDS011;2694;48.954;8.928;2023-06-22T14:07:48;12.98;;;5.10;;
5343;SDS011;2694;48.954;8.928;2023-06-22T14:10:15;12.88;;;5.30;;
5343;SDS011;2694;48.954;8.928;2023-06-22T14:12:41;13.48;;;5.47;;
5343;SDS011;2694;48.954;8.928;2023-06-22T14:15:09;13.80;;;5.40;;
5343;SDS011;2694;48.954;8.928;2023-06-22T14:17:36;13.32;;;5.20;;
5343;SDS011;2694;48.954;8.928;2023-06-22T14:20:05;8.63;;;4.82;;
5343;SDS011;2694;48.954;8.928;2023-06-22T14:22:33;14.35;;;6.10;;
5343;SDS011;2694;48.954;8.928;2023-06-22T14:25:01;11.95;;;5.18;;
5343;SDS011;2694;48.954;8.928;2023-06-22T14:27:28;13.35;;;5.30;;
5343;SDS011;2694;48.954;8.928;2023-06-22T14:29:55;14.90;;;5.05;;
5343;SDS011;2694;48.954;8.928;2023-06-22T14:32:22;14.57;;;5.15;;
5343;SDS011;2694;48.954;8.928;2023-06-22T14:34:50;18.13;;;5.57;;
5343;SDS011;2694;48.954;8.928;2023-06-22T14:37:18;10.45;;;4.40;;
5343;SDS011;2694;48.954;8.928;2023-06-22T14:39:45;14.68;;;5.40;;
5343;SDS011;2694;48.954;8.928;2023-06-22T14:42:12;14.07;;;5.60;;
5343;SDS011;2694;48.954;8.928;2023-06-22T14:44:39;16.30;;;5.50;;
5343;SDS011;2694;48.954;8.928;2023-06-22T14:47:06;12.98;;;4.30;;
5343;SDS011;2694;48.954;8.928;2023-06-22T14:49:33;16.45;;;5.90;;
5343;SDS011;2694;48.954;8.928;2023-06-22T14:52:01;14.90;;;6.30;;
5343;SDS011;2694;48.954;8.928;2023-06-22T14:54:30;14.68;;;5.28;;
5343;SDS011;2694;48.954;8.928;2023-06-22T14:56:57;13.57;;;5.10;;
5343;SDS011;2694;48.954;8.928;2023-06-22T14:59:24;14.75;;;5.18;;
5343;SDS011;2694;48.954;8.928;2023-06-22T15:01:51;11.57;;;4.63;;
5343;SDS011;2694;48.954;8.928;2023-06-22T15:04:19;15.13;;;5.80;;
5343;SDS011;2694;48.954;8.928;2023-06-22T15:06:46;11.25;;;4.70;;
5343;SDS011;2694;48.954;8.928;2023-06-22T15:09:13;10.85;;;5.18;;
5343;SDS011;2694;48.954;8.928;2023-06-22T15:11:41;12.38;;;5.35;;